createdAt,value
2023-01-27T00:01:53.965Z,4.40
2023-01-27T00:04:24.016Z,4.40
2023-01-27T00:06:54.160Z,4.30
2023-01-27T00:09:26.834Z,4.20
2023-01-27T00:12:11.543Z,4.20
2023-01-27T00:14:41.628Z,4.20
2023-01-27T00:17:11.721Z,4.30
2023-01-27T00:19:45.224Z,4.40
2023-01-27T00:22:30.911Z,4.40
2023-01-27T00:25:03.692Z,4.40
2023-01-27T00:27:36.479Z,4.50
2023-01-27T00:30:10.692Z,4.50
2023-01-27T00:32:53.619Z,4.50
2023-01-27T00:35:23.894Z,4.40
2023-01-27T00:37:53.984Z,4.40
2023-01-27T00:40:26.725Z,4.40
2023-01-27T00:42:56.925Z,4.40
2023-01-27T00:45:39.586Z,4.50
2023-01-27T00:48:09.865Z,4.40
2023-01-27T00:50:42.195Z,4.40
2023-01-27T00:53:12.355Z,4.30
2023-01-27T00:55:47.315Z,4.30
2023-01-27T00:58:17.603Z,4.40
2023-01-27T01:00:51.536Z,4.40
2023-01-27T01:03:21.673Z,4.30
2023-01-27T01:05:52.398Z,4.40
2023-01-27T01:08:22.671Z,4.40
2023-01-27T01:10:55.536Z,4.40
2023-01-27T01:13:27.783Z,4.30
2023-01-27T01:15:59.510Z,4.30
2023-01-27T01:18:29.650Z,4.40
2023-01-27T01:21:00.656Z,4.30
2023-01-27T01:23:30.855Z,4.30
2023-01-27T01:26:03.844Z,4.30
2023-01-27T01:28:34.041Z,4.30
2023-01-27T01:31:08.859Z,4.30
2023-01-27T01:33:40.365Z,4.30
2023-01-27T01:36:14.389Z,4.30
2023-01-27T01:38:44.596Z,4.40
2023-01-27T01:41:21.841Z,4.40
2023-01-27T01:43:53.855Z,4.40
2023-01-27T01:46:25.324Z,4.30
2023-01-27T01:48:59.432Z,4.40
2023-01-27T01:51:37.860Z,4.40
2023-01-27T01:54:14.377Z,4.40
2023-01-27T01:56:52.578Z,4.30
2023-01-27T01:59:31.713Z,4.30
2023-01-27T02:02:09.799Z,4.30
2023-01-27T02:04:46.694Z,4.20
2023-01-27T02:07:26.820Z,4.20
2023-01-27T02:09:59.843Z,4.30
2023-01-27T02:12:32.620Z,4.30
2023-01-27T02:15:03.115Z,4.30
2023-01-27T02:17:33.500Z,4.20
2023-01-27T02:20:17.267Z,4.10
2023-01-27T02:23:06.136Z,4.10
2023-01-27T02:25:51.723Z,4.00
2023-01-27T02:28:21.870Z,4.10
2023-01-27T02:30:52.127Z,4.10
2023-01-27T02:33:22.263Z,4.00
2023-01-27T02:36:01.649Z,4.00
2023-01-27T02:38:39.067Z,4.00
2023-01-27T02:41:21.169Z,4.00
2023-01-27T02:43:52.091Z,4.00
2023-01-27T02:46:22.847Z,4.00
2023-01-27T02:48:52.953Z,4.00
2023-01-27T02:51:23.367Z,4.00
2023-01-27T02:53:53.573Z,4.00
2023-01-27T02:56:26.588Z,4.00
2023-01-27T02:58:56.701Z,3.90
2023-01-27T03:01:27.962Z,3.90
2023-01-27T03:03:59.131Z,3.90
2023-01-27T03:06:29.611Z,3.80
2023-01-27T03:08:59.822Z,3.90
2023-01-27T03:11:45.021Z,3.90
2023-01-27T03:14:15.392Z,3.90
2023-01-27T03:16:58.025Z,4.00
2023-01-27T03:19:28.580Z,3.90
2023-01-27T03:22:01.938Z,4.00
2023-01-27T03:24:32.055Z,3.90
2023-01-27T03:27:04.800Z,3.90
2023-01-27T03:29:47.378Z,3.90
2023-01-27T03:32:17.628Z,3.90
2023-01-27T03:34:47.683Z,4.00
2023-01-27T03:37:30.288Z,4.00
2023-01-27T03:40:12.777Z,4.10
2023-01-27T03:42:57.905Z,4.20
2023-01-27T03:45:40.424Z,4.10
2023-01-27T03:48:10.601Z,3.90
2023-01-27T03:50:43.871Z,3.90
2023-01-27T03:53:14.514Z,3.90
2023-01-27T03:55:44.575Z,3.90
2023-01-27T03:58:25.041Z,3.80
2023-01-27T04:00:57.655Z,3.80
2023-01-27T04:03:43.678Z,3.80
2023-01-27T04:06:30.382Z,3.70
2023-01-27T04:09:01.463Z,3.80
2023-01-27T04:11:44.969Z,3.80
2023-01-27T04:14:17.994Z,3.80
2023-01-27T04:16:48.374Z,3.80
2023-01-27T04:19:18.633Z,3.80
2023-01-27T04:21:49.441Z,3.80
2023-01-27T04:24:23.304Z,3.80
2023-01-27T04:26:59.609Z,3.90
2023-01-27T04:29:36.367Z,4.00
2023-01-27T04:32:09.447Z,4.00
2023-01-27T04:34:40.785Z,4.00
2023-01-27T04:37:12.802Z,4.00
2023-01-27T04:39:45.671Z,4.00
2023-01-27T04:42:15.733Z,4.00
2023-01-27T04:44:48.637Z,4.10
2023-01-27T04:47:18.744Z,3.90
2023-01-27T04:49:48.969Z,4.00
2023-01-27T04:52:20.625Z,4.00
2023-01-27T04:54:50.768Z,4.00
2023-01-27T04:57:23.677Z,3.90
2023-01-27T04:59:56.439Z,3.90
2023-01-27T05:02:26.532Z,4.00
2023-01-27T05:04:56.600Z,4.10
2023-01-27T05:07:26.827Z,4.10
2023-01-27T05:09:56.941Z,4.10
2023-01-27T05:12:27.165Z,4.00
2023-01-27T05:14:59.893Z,4.10
2023-01-27T05:17:33.998Z,4.10
2023-01-27T05:20:04.608Z,4.10
2023-01-27T05:22:34.735Z,4.00
2023-01-27T05:25:04.933Z,4.00
2023-01-27T05:27:35.528Z,3.90
2023-01-27T05:30:10.980Z,3.70
2023-01-27T05:32:41.032Z,3.80
2023-01-27T05:35:12.414Z,3.90
2023-01-27T05:37:42.685Z,3.60
2023-01-27T05:40:16.930Z,3.70
2023-01-27T05:42:47.019Z,3.70
2023-01-27T05:45:19.952Z,3.70
2023-01-27T05:48:11.615Z,3.70
2023-01-27T05:50:41.782Z,3.70
2023-01-27T05:53:11.865Z,3.70
2023-01-27T05:55:41.980Z,3.60
2023-01-27T05:58:12.031Z,3.60
2023-01-27T06:00:44.742Z,3.60
2023-01-27T06:03:15.886Z,3.60
2023-01-27T06:05:58.762Z,3.60
2023-01-27T06:08:29.921Z,3.60
2023-01-27T06:11:04.298Z,3.70
2023-01-27T06:13:35.828Z,3.60
2023-01-27T06:16:15.306Z,3.60
2023-01-27T06:18:45.342Z,3.60
2023-01-27T06:21:17.886Z,3.70
2023-01-27T06:23:50.479Z,3.80
2023-01-27T06:26:22.383Z,3.80
2023-01-27T06:28:52.709Z,3.70
2023-01-27T06:31:26.077Z,3.70
2023-01-27T06:33:56.471Z,3.70
2023-01-27T06:36:26.764Z,3.80
2023-01-27T06:38:56.949Z,3.80
2023-01-27T06:41:29.602Z,3.80
2023-01-27T06:43:59.675Z,3.80
2023-01-27T06:46:32.668Z,3.80
2023-01-27T06:49:02.782Z,4.00
2023-01-27T06:51:32.975Z,3.90
2023-01-27T06:54:03.027Z,3.90
2023-01-27T06:56:33.088Z,3.80
2023-01-27T06:59:03.158Z,3.90
2023-01-27T07:01:38.411Z,3.70
2023-01-27T07:04:08.567Z,3.70
2023-01-27T07:06:38.912Z,3.90
2023-01-27T07:09:08.983Z,3.80
2023-01-27T07:11:39.065Z,3.80
2023-01-27T07:14:10.616Z,3.80
2023-01-27T07:16:43.421Z,3.70
2023-01-27T07:19:13.546Z,3.80
2023-01-27T07:21:43.722Z,4.00
2023-01-27T07:24:14.112Z,4.00
2023-01-27T07:26:45.228Z,4.00
2023-01-27T07:29:15.657Z,3.90
2023-01-27T07:31:50.906Z,4.00
2023-01-27T07:34:21.008Z,4.00
2023-01-27T07:36:51.176Z,3.90
2023-01-27T07:39:23.877Z,3.90
2023-01-27T07:41:54.016Z,3.90
2023-01-27T07:44:24.082Z,4.00
2023-01-27T07:47:01.773Z,4.20
2023-01-27T07:49:31.964Z,4.20
2023-01-27T07:52:02.178Z,4.20
2023-01-27T07:54:32.273Z,4.30
2023-01-27T07:57:03.503Z,4.30
2023-01-27T07:59:33.569Z,4.30
2023-01-27T08:02:06.804Z,4.30
2023-01-27T08:04:50.867Z,4.30
2023-01-27T08:07:23.266Z,4.40
2023-01-27T08:09:54.520Z,4.40
2023-01-27T08:12:24.591Z,4.20
2023-01-27T08:14:54.682Z,4.50
2023-01-27T08:17:27.485Z,4.60
2023-01-27T08:19:57.527Z,4.50
2023-01-27T08:22:27.693Z,4.60
2023-01-27T08:24:58.303Z,4.70
2023-01-27T08:27:28.430Z,4.70
2023-01-27T08:29:58.769Z,4.80
2023-01-27T08:32:31.497Z,4.80
2023-01-27T08:35:01.586Z,5.00
2023-01-27T08:37:31.997Z,5.10
2023-01-27T08:40:02.041Z,5.20
2023-01-27T08:42:33.749Z,5.30
2023-01-27T08:45:03.952Z,5.40
2023-01-27T08:47:36.957Z,5.30
2023-01-27T08:50:07.953Z,5.40
2023-01-27T08:52:38.318Z,5.40
2023-01-27T08:55:09.368Z,5.40
2023-01-27T08:57:40.124Z,5.80
2023-01-27T09:00:14.372Z,6.00
2023-01-27T09:02:47.534Z,6.00
2023-01-27T09:05:17.820Z,5.80
2023-01-27T09:07:48.590Z,5.80
2023-01-27T09:10:20.478Z,5.90
2023-01-27T09:12:50.748Z,5.80
2023-01-27T09:15:21.149Z,5.70
2023-01-27T09:17:55.302Z,5.70
2023-01-27T09:20:25.449Z,5.60
2023-01-27T09:22:57.947Z,5.70
2023-01-27T09:25:28.218Z,5.70
2023-01-27T09:28:01.507Z,5.70
2023-01-27T09:30:32.531Z,5.80
2023-01-27T09:33:05.313Z,6.10
2023-01-27T09:35:45.063Z,6.40
2023-01-27T09:38:20.525Z,6.70
2023-01-27T09:41:13.622Z,7.00
2023-01-27T09:44:18.378Z,7.30
2023-01-27T09:47:24.252Z,7.50
2023-01-27T09:50:29.251Z,7.30
2023-01-27T09:53:28.705Z,7.40
2023-01-27T09:56:07.825Z,7.40
2023-01-27T09:58:56.037Z,7.50
2023-01-27T10:01:41.749Z,7.60
2023-01-27T10:04:45.769Z,7.50
2023-01-27T10:07:52.064Z,7.30
2023-01-27T10:11:09.312Z,7.10
2023-01-27T10:13:56.757Z,6.70
2023-01-27T10:17:03.257Z,6.60
2023-01-27T10:20:02.450Z,6.50
2023-01-27T10:22:49.689Z,6.60
2023-01-27T10:25:40.137Z,6.40
2023-01-27T10:28:17.326Z,6.40
2023-01-27T10:31:05.464Z,6.40
2023-01-27T10:33:51.814Z,6.40
2023-01-27T10:36:31.077Z,6.40
2023-01-27T10:39:21.232Z,6.50
2023-01-27T10:42:09.162Z,6.50
2023-01-27T10:45:05.014Z,6.40
2023-01-27T10:47:56.301Z,6.50
2023-01-27T10:50:34.161Z,6.40
2023-01-27T10:53:14.986Z,6.20
2023-01-27T10:56:01.071Z,6.30
2023-01-27T10:58:50.777Z,6.30
2023-01-27T11:01:34.323Z,6.40
2023-01-27T11:04:12.709Z,6.50
2023-01-27T11:06:48.739Z,6.30
2023-01-27T11:09:29.705Z,6.30
2023-01-27T11:12:08.894Z,6.40
2023-01-27T11:14:49.862Z,6.30
2023-01-27T11:17:32.830Z,6.40
2023-01-27T11:20:19.307Z,6.40
2023-01-27T11:22:59.399Z,6.40
2023-01-27T11:25:39.033Z,6.50
2023-01-27T11:28:31.166Z,6.70
2023-01-27T11:31:17.945Z,6.70
2023-01-27T11:34:03.868Z,6.80
2023-01-27T11:36:35.416Z,6.80
2023-01-27T11:39:06.888Z,6.80
2023-01-27T11:41:41.262Z,6.70
2023-01-27T11:44:22.647Z,6.80
2023-01-27T11:46:55.342Z,6.80
2023-01-27T11:49:33.718Z,6.70
2023-01-27T11:52:11.836Z,6.80
2023-01-27T11:54:51.776Z,7.00
2023-01-27T11:57:25.887Z,7.10
2023-01-27T12:00:07.449Z,7.20
2023-01-27T12:02:45.414Z,7.30
2023-01-27T12:05:26.096Z,7.20
2023-01-27T12:08:00.290Z,7.20
2023-01-27T12:10:34.716Z,7.20
2023-01-27T12:13:12.031Z,7.00
2023-01-27T12:15:57.486Z,6.80
2023-01-27T12:18:27.696Z,6.90
2023-01-27T12:21:04.743Z,7.00
2023-01-27T12:23:39.680Z,7.00
2023-01-27T12:26:12.949Z,6.90
2023-01-27T12:28:52.874Z,6.70
2023-01-27T12:31:31.103Z,6.80
2023-01-27T12:34:07.605Z,6.70
2023-01-27T12:36:47.225Z,6.70
2023-01-27T12:39:47.364Z,6.60
2023-01-27T12:42:43.298Z,6.60
2023-01-27T12:45:35.006Z,6.80
2023-01-27T12:48:22.339Z,6.80
2023-01-27T12:51:08.752Z,6.80
2023-01-27T12:53:42.676Z,6.80
2023-01-27T12:56:18.795Z,6.70
2023-01-27T12:58:59.060Z,6.70
2023-01-27T13:01:34.836Z,6.80
2023-01-27T13:04:18.105Z,6.80
2023-01-27T13:06:53.891Z,6.80
2023-01-27T13:09:33.468Z,6.80
2023-01-27T13:12:15.314Z,6.90
2023-01-27T13:14:47.094Z,6.90
2023-01-27T13:17:44.482Z,7.10
2023-01-27T13:20:27.169Z,7.30
2023-01-27T13:23:04.211Z,7.60
2023-01-27T13:25:43.814Z,7.80
2023-01-27T13:28:23.397Z,7.80
2023-01-27T13:31:01.223Z,7.70
2023-01-27T13:33:43.624Z,7.50
2023-01-27T13:36:37.037Z,7.60
2023-01-27T13:39:21.147Z,7.60
2023-01-27T13:41:59.694Z,7.60
2023-01-27T13:44:41.044Z,7.40
2023-01-27T13:47:21.698Z,7.10
2023-01-27T13:50:00.316Z,7.00
2023-01-27T13:52:33.020Z,6.90
2023-01-27T13:55:03.275Z,6.80
2023-01-27T13:57:54.760Z,6.70
2023-01-27T14:00:34.829Z,6.70
2023-01-27T14:03:38.221Z,6.60
2023-01-27T14:06:26.440Z,6.60
2023-01-27T14:09:15.495Z,6.60
2023-01-27T14:11:56.174Z,6.60
2023-01-27T14:14:57.729Z,6.50
2023-01-27T14:17:42.902Z,6.50
2023-01-27T14:20:41.439Z,6.50
2023-01-27T14:23:54.423Z,6.40
2023-01-27T14:26:53.357Z,6.40
2023-01-27T14:29:35.993Z,6.40
2023-01-27T14:32:21.008Z,6.40
2023-01-27T14:35:09.912Z,6.30
2023-01-27T14:37:55.397Z,6.30
2023-01-27T14:40:31.917Z,6.30
2023-01-27T14:43:26.330Z,6.30
2023-01-27T14:46:07.806Z,6.30
2023-01-27T14:48:54.971Z,6.20
2023-01-27T14:51:38.043Z,6.20
2023-01-27T14:54:35.998Z,6.30
2023-01-27T14:57:34.168Z,6.30
2023-01-27T15:00:38.260Z,6.30
2023-01-27T15:03:47.289Z,6.20
2023-01-27T15:06:29.708Z,6.20
2023-01-27T15:09:09.913Z,6.30
2023-01-27T15:12:04.362Z,6.30
2023-01-27T15:15:24.741Z,6.20
2023-01-27T15:18:15.697Z,6.10
2023-01-27T15:21:14.649Z,6.10
2023-01-27T15:24:26.605Z,6.00
2023-01-27T15:27:00.456Z,6.00
2023-01-27T15:29:33.455Z,6.10
2023-01-27T15:32:38.258Z,6.10
2023-01-27T15:35:36.142Z,6.00
2023-01-27T15:38:32.060Z,5.90
2023-01-27T15:41:12.760Z,5.90
2023-01-27T15:44:18.158Z,5.90
2023-01-27T15:46:51.239Z,5.90
2023-01-27T15:49:28.407Z,5.90
2023-01-27T15:52:13.287Z,5.90
2023-01-27T15:54:47.488Z,5.90
2023-01-27T15:57:31.845Z,5.90
2023-01-27T16:00:31.190Z,5.90
2023-01-27T16:03:07.371Z,5.90
2023-01-27T16:05:47.471Z,5.80
2023-01-27T16:08:19.918Z,5.80
2023-01-27T16:10:50.425Z,5.80
2023-01-27T16:13:29.771Z,5.80
2023-01-27T16:16:37.085Z,5.80
2023-01-27T16:19:24.115Z,5.70
2023-01-27T16:22:02.270Z,5.80
2023-01-27T16:24:42.975Z,5.60
2023-01-27T16:27:35.687Z,5.60
2023-01-27T16:30:18.743Z,5.70
2023-01-27T16:33:06.485Z,5.80
2023-01-27T16:35:47.049Z,5.80
2023-01-27T16:38:29.124Z,5.70
2023-01-27T16:41:03.728Z,5.70
2023-01-27T16:43:46.297Z,5.60
2023-01-27T16:46:33.037Z,5.50
2023-01-27T16:49:16.680Z,5.50
2023-01-27T16:51:47.190Z,5.60
2023-01-27T16:54:26.017Z,5.60
2023-01-27T16:56:57.369Z,5.50
2023-01-27T16:59:32.717Z,5.50
2023-01-27T17:02:09.110Z,5.50
2023-01-27T17:04:43.081Z,5.50
2023-01-27T17:07:16.302Z,5.50
2023-01-27T17:09:56.044Z,5.50
2023-01-27T17:12:32.045Z,5.40
2023-01-27T17:15:16.390Z,5.40
2023-01-27T17:17:47.197Z,5.30
2023-01-27T17:20:32.533Z,5.30
2023-01-27T17:23:05.471Z,5.30
2023-01-27T17:25:39.683Z,5.20
2023-01-27T17:28:18.207Z,5.20
2023-01-27T17:30:51.868Z,5.10
2023-01-27T17:33:24.528Z,5.00
2023-01-27T17:36:02.085Z,5.10
2023-01-27T17:38:46.543Z,5.10
2023-01-27T17:41:37.250Z,5.20
2023-01-27T17:44:16.193Z,5.20
2023-01-27T17:46:46.393Z,5.20
2023-01-27T17:49:20.665Z,5.20
2023-01-27T17:51:57.698Z,5.30
2023-01-27T17:54:33.344Z,5.30
2023-01-27T17:57:11.719Z,5.30
2023-01-27T17:59:47.553Z,5.20
2023-01-27T18:02:27.994Z,5.30
2023-01-27T18:05:05.775Z,5.20
2023-01-27T18:07:38.822Z,5.20
2023-01-27T18:10:28.059Z,5.20
2023-01-27T18:13:00.807Z,5.30
2023-01-27T18:15:44.793Z,5.30
2023-01-27T18:18:27.417Z,5.20
2023-01-27T18:21:18.980Z,5.20
2023-01-27T18:23:55.791Z,5.30
2023-01-27T18:26:31.524Z,5.30
2023-01-27T18:29:07.608Z,5.40
2023-01-27T18:31:46.899Z,5.30
2023-01-27T18:34:30.913Z,5.30
2023-01-27T18:37:04.768Z,5.30
2023-01-27T18:39:51.949Z,5.20
2023-01-27T18:42:25.517Z,5.20
2023-01-27T18:44:56.429Z,5.10
2023-01-27T18:47:36.498Z,5.20
2023-01-27T18:50:26.095Z,5.10
2023-01-27T18:52:57.376Z,5.30
2023-01-27T18:55:32.861Z,5.20
2023-01-27T18:58:03.689Z,5.20
2023-01-27T19:00:40.329Z,5.20
2023-01-27T19:03:19.438Z,5.20
2023-01-27T19:05:52.176Z,5.20
2023-01-27T19:08:25.533Z,5.30
2023-01-27T19:10:58.307Z,5.20
2023-01-27T19:13:28.439Z,5.20
2023-01-27T19:16:00.283Z,5.10
2023-01-27T19:18:39.427Z,5.10
2023-01-27T19:21:11.949Z,5.10
2023-01-27T19:23:44.499Z,5.10
2023-01-27T19:26:22.789Z,5.00
2023-01-27T19:28:57.008Z,5.10
2023-01-27T19:31:30.014Z,5.00
2023-01-27T19:34:00.137Z,5.00
2023-01-27T19:36:44.489Z,5.00
2023-01-27T19:39:20.078Z,5.10
2023-01-27T19:41:55.329Z,5.10
2023-01-27T19:44:25.492Z,5.00
2023-01-27T19:46:55.700Z,5.10
2023-01-27T19:49:25.841Z,5.10
2023-01-27T19:51:56.266Z,5.00
2023-01-27T19:54:27.473Z,4.90
2023-01-27T19:57:00.118Z,4.80
2023-01-27T19:59:30.246Z,4.70
2023-01-27T20:02:00.334Z,4.90
2023-01-27T20:04:30.442Z,4.90
2023-01-27T20:07:00.543Z,4.80
2023-01-27T20:09:30.671Z,4.90
2023-01-27T20:12:03.327Z,4.70
2023-01-27T20:14:33.406Z,4.60
2023-01-27T20:17:03.567Z,4.70
2023-01-27T20:19:33.714Z,4.70
2023-01-27T20:22:03.794Z,4.80
2023-01-27T20:24:33.955Z,4.70
2023-01-27T20:27:06.839Z,4.80
2023-01-27T20:29:37.337Z,4.90
2023-01-27T20:32:09.554Z,4.90
2023-01-27T20:34:40.802Z,4.80
2023-01-27T20:37:10.876Z,4.80
2023-01-27T20:39:40.938Z,4.80
2023-01-27T20:42:13.599Z,4.70
2023-01-27T20:44:43.731Z,4.60
2023-01-27T20:47:15.848Z,4.70
2023-01-27T20:49:47.069Z,4.80
2023-01-27T20:52:17.138Z,4.80
2023-01-27T20:54:47.323Z,4.80
2023-01-27T20:57:22.040Z,4.80
2023-01-27T20:59:52.482Z,4.80
2023-01-27T21:02:22.604Z,4.70
2023-01-27T21:04:53.872Z,4.50
2023-01-27T21:07:25.455Z,4.60
2023-01-27T21:09:56.018Z,4.70
2023-01-27T21:12:29.505Z,4.80
2023-01-27T21:15:01.725Z,4.80
2023-01-27T21:17:31.792Z,4.80
2023-01-27T21:20:01.980Z,4.80
2023-01-27T21:22:32.097Z,4.80
2023-01-27T21:25:02.200Z,4.80
2023-01-27T21:27:34.851Z,4.70
2023-01-27T21:30:06.334Z,4.70
2023-01-27T21:32:36.596Z,4.70
2023-01-27T21:35:07.594Z,4.80
2023-01-27T21:37:38.396Z,4.70
2023-01-27T21:40:11.447Z,4.70
2023-01-27T21:42:56.376Z,4.70
2023-01-27T21:45:26.545Z,4.80
2023-01-27T21:47:57.994Z,4.80
2023-01-27T21:50:28.357Z,4.80
2023-01-27T21:52:58.894Z,4.80
2023-01-27T21:55:31.685Z,4.80
2023-01-27T21:58:04.408Z,4.80
2023-01-27T22:00:34.699Z,4.80
2023-01-27T22:03:07.020Z,4.80
2023-01-27T22:05:39.825Z,4.80
2023-01-27T22:08:10.170Z,4.60
2023-01-27T22:10:40.935Z,4.70
2023-01-27T22:13:14.272Z,4.70
2023-01-27T22:15:44.346Z,4.60
2023-01-27T22:18:16.998Z,4.60
2023-01-27T22:20:49.674Z,4.60
2023-01-27T22:23:20.624Z,4.60
2023-01-27T22:25:52.389Z,4.70
2023-01-27T22:28:26.618Z,4.70
2023-01-27T22:30:57.438Z,4.60
2023-01-27T22:33:28.535Z,4.60
2023-01-27T22:36:07.311Z,4.50
2023-01-27T22:38:41.498Z,4.50
2023-01-27T22:41:13.154Z,4.50
2023-01-27T22:43:45.817Z,4.50
2023-01-27T22:46:15.910Z,4.50
2023-01-27T22:48:46.627Z,4.50
2023-01-27T22:51:17.055Z,4.50
2023-01-27T22:53:47.237Z,4.50
2023-01-27T22:56:17.329Z,4.50
2023-01-27T22:58:52.892Z,4.50
2023-01-27T23:01:23.093Z,4.60
2023-01-27T23:03:53.217Z,4.60
2023-01-27T23:06:23.719Z,4.50
2023-01-27T23:08:53.962Z,4.50
2023-01-27T23:11:24.352Z,4.50
2023-01-27T23:13:57.158Z,4.50
2023-01-27T23:16:27.323Z,4.60
2023-01-27T23:18:57.453Z,4.60
2023-01-27T23:21:32.004Z,4.50
2023-01-27T23:24:07.528Z,4.50
2023-01-27T23:26:37.924Z,4.50
2023-01-27T23:29:22.926Z,4.50
2023-01-27T23:31:54.928Z,4.60
2023-01-27T23:34:25.644Z,4.50
2023-01-27T23:36:56.090Z,4.50
2023-01-27T23:39:26.451Z,4.40
2023-01-27T23:41:56.549Z,4.50
2023-01-27T23:44:29.304Z,4.50
2023-01-27T23:47:01.594Z,4.50
2023-01-27T23:49:31.820Z,4.50
2023-01-27T23:52:04.876Z,4.50
2023-01-27T23:54:37.520Z,4.40
2023-01-27T23:57:07.745Z,4.40
2023-01-27T23:59:41.667Z,4.50
